Time;durP1;ratioP1;P1;durP2;ratioP2;P2;SDS_P1;SDS_P2;PMS_P1;PMS_P2;Temp;Humidity;BMP_temperature;BMP_pressure;BME280_temperature;BME280_humidity;BME280_pressure;Samples;Min_cycle;Max_cycle;Signal;HPM_P1;HPM_P2
2021/04/01 00:00:34;;;;;;;10.40;8.10;;;9.70;99.90;;;;;;5089811;28;20500;-69
2021/04/01 00:03:00;;;;;;;14.07;9.07;;;9.70;99.90;;;;;;5090138;28;20524;-70
2021/04/01 00:05:29;;;;;;;13.83;10.30;;;9.70;99.90;;;;;;5089893;28;20565;-70
2021/04/01 00:07:56;;;;;;;13.23;9.30;;;9.60;99.90;;;;;;5077477;28;20544;-69
2021/04/01 00:10:27;;;;;;;11.03;8.50;;;9.50;99.90;;;;;;5095314;28;20533;-70
2021/04/01 00:12:55;;;;;;;13.03;9.67;;;9.40;99.90;;;;;;5091077;28;20466;-70
2021/04/01 00:15:21;;;;;;;11.13;9.90;;;9.40;99.90;;;;;;5102592;28;20877;-69
2021/04/01 00:17:48;;;;;;;15.60;9.13;;;9.30;99.90;;;;;;5109843;28;21151;-70
2021/04/01 00:20:16;;;;;;;14.20;8.00;;;9.20;99.90;;;;;;5109882;28;20562;-70
2021/04/01 00:22:43;;;;;;;13.60;8.23;;;9.10;99.90;;;;;;5110977;28;20881;-71
2021/04/01 00:25:13;;;;;;;11.80;8.40;;;9.00;99.90;;;;;;5110690;28;20484;-70
2021/04/01 00:27:40;;;;;;;14.53;8.57;;;9.10;99.90;;;;;;5110761;28;20532;-70
2021/04/01 00:30:10;;;;;;;10.17;8.90;;;9.20;99.90;;;;;;5110736;28;20590;-69
2021/04/01 00:32:36;;;;;;;13.73;8.43;;;9.20;99.90;;;;;;5111075;28;20587;-70
2021/04/01 00:35:04;;;;;;;13.77;8.50;;;9.30;99.90;;;;;;5111263;28;20445;-70
2021/04/01 00:37:31;;;;;;;13.63;8.70;;;9.30;99.90;;;;;;5111612;28;20484;-70
2021/04/01 00:39:58;;;;;;;11.13;8.57;;;9.20;99.90;;;;;;5111013;28;20445;-69
2021/04/01 00:42:24;;;;;;;9.67;8.10;;;9.20;99.90;;;;;;5111799;28;21040;-70
2021/04/01 00:44:50;;;;;;;9.60;7.40;;;9.10;99.90;;;;;;5111029;28;20565;-70
2021/04/01 00:47:18;;;;;;;12.50;9.23;;;9.00;99.90;;;;;;5110847;28;20495;-70
2021/04/01 00:49:44;;;;;;;9.50;8.23;;;8.90;99.90;;;;;;5110656;28;20528;-70
2021/04/01 00:52:11;;;;;;;11.53;8.07;;;8.90;99.90;;;;;;5111074;28;20528;-69
2021/04/01 00:54:38;;;;;;;11.13;7.70;;;8.80;99.90;;;;;;5110896;28;20487;-70
2021/04/01 00:57:05;;;;;;;10.97;8.60;;;8.80;99.90;;;;;;5110854;28;20560;-70
2021/04/01 00:59:32;;;;;;;11.87;8.67;;;8.80;99.90;;;;;;5110601;28;20521;-70
2021/04/01 01:02:02;;;;;;;14.20;8.10;;;8.70;99.90;;;;;;5110928;28;20474;-69
2021/04/01 01:04:31;;;;;;;8.47;7.30;;;8.70;99.90;;;;;;5110477;28;20480;-70
2021/04/01 01:06:57;;;;;;;12.60;8.33;;;8.70;99.90;;;;;;5111029;28;20498;-70
2021/04/01 01:09:24;;;;;;;12.60;7.80;;;8.70;99.90;;;;;;5110534;28;20445;-71
2021/04/01 01:11:50;;;;;;;8.00;6.90;;;8.80;99.90;;;;;;5110432;28;20945;-70
2021/04/01 01:14:17;;;;;;;7.43;6.70;;;8.80;99.90;;;;;;5110596;28;20591;-70
2021/04/01 01:16:43;;;;;;;11.50;6.40;;;8.80;99.90;;;;;;5110637;28;20535;-69
2021/04/01 01:19:12;;;;;;;9.27;6.73;;;8.80;99.90;;;;;;5112300;28;20539;-69
2021/04/01 01:21:39;;;;;;;10.00;7.13;;;8.70;99.90;;;;;;5114661;28;20932;-70
2021/04/01 01:24:11;;;;;;;9.73;7.77;;;8.70;99.90;;;;;;5114931;28;20654;-69
2021/04/01 01:26:39;;;;;;;9.30;6.33;;;8.60;99.90;;;;;;5114943;28;20993;-69
2021/04/01 01:29:05;;;;;;;11.37;7.27;;;8.50;99.90;;;;;;5114495;28;20524;-69
2021/04/01 01:31:32;;;;;;;16.90;6.73;;;8.50;99.90;;;;;;5114782;28;20875;-70
2021/04/01 01:33:58;;;;;;;9.57;6.57;;;8.60;99.90;;;;;;5114797;28;20544;-70
2021/04/01 01:36:25;;;;;;;9.13;6.60;;;8.60;99.90;;;;;;5114726;28;20477;-70
2021/04/01 01:38:51;;;;;;;9.40;7.20;;;8.50;99.90;;;;;;5114676;28;20574;-70
2021/04/01 01:41:18;;;;;;;9.90;6.63;;;8.50;99.90;;;;;;5114334;28;20472;-71
2021/04/01 01:43:45;;;;;;;9.90;7.33;;;8.40;99.90;;;;;;5114540;28;20465;-69
2021/04/01 01:46:12;;;;;;;12.70;6.40;;;8.50;99.90;;;;;;5114769;28;20563;-71
2021/04/01 01:48:38;;;;;;;7.53;6.57;;;8.60;99.90;;;;;;5114962;28;20903;-72
2021/04/01 01:51:05;;;;;;;9.67;5.70;;;8.60;99.90;;;;;;5114525;28;20571;-71
2021/04/01 01:53:31;;;;;;;9.90;5.80;;;8.50;99.90;;;;;;5114382;28;20507;-69
2021/04/01 01:55:58;;;;;;;9.57;6.50;;;8.60;99.90;;;;;;5114170;28;20433;-70
2021/04/01 01:58:25;;;;;;;8.73;6.03;;;8.40;99.90;;;;;;5114469;28;20539;-72
2021/04/01 02:00:55;;;;;;;10.03;6.70;;;8.30;99.90;;;;;;5114255;28;20441;-70
2021/04/01 02:03:23;;;;;;;9.50;7.00;;;8.30;99.90;;;;;;5114348;28;20877;-69
2021/04/01 02:05:51;;;;;;;8.97;5.80;;;8.20;99.90;;;;;;5114143;28;20622;-70
2021/04/01 02:08:18;;;;;;;7.70;6.83;;;8.10;99.90;;;;;;5114068;28;20541;-71
2021/04/01 02:10:46;;;;;;;17.33;7.90;;;8.10;99.90;;;;;;5113805;28;20941;-71
2021/04/01 02:13:14;;;;;;;12.70;7.80;;;8.20;99.90;;;;;;5114500;28;20492;-71
2021/04/01 02:15:44;;;;;;;16.70;8.80;;;8.20;99.90;;;;;;5114083;28;20473;-71
2021/04/01 02:18:12;;;;;;;14.17;8.20;;;8.20;99.90;;;;;;5113332;28;20449;-71
2021/04/01 02:20:41;;;;;;;10.47;8.23;;;8.30;99.90;;;;;;5113818;28;20808;-72
2021/04/01 02:23:09;;;;;;;12.50;7.97;;;8.30;99.90;;;;;;5113825;28;20513;-70
2021/04/01 02:25:36;;;;;;;8.77;6.90;;;8.20;99.90;;;;;;5113837;28;20484;-69
2021/04/01 02:28:03;;;;;;;10.33;6.73;;;8.20;99.90;;;;;;5113842;28;20445;-71
2021/04/01 02:30:30;;;;;;;10.07;8.40;;;8.10;99.90;;;;;;5114119;28;20469;-71
2021/04/01 02:32:57;;;;;;;7.70;6.90;;;8.10;99.90;;;;;;5113698;28;20488;-69
2021/04/01 02:35:23;;;;;;;11.40;7.90;;;8.00;99.90;;;;;;5113703;28;20507;-71
2021/04/01 02:37:50;;;;;;;9.00;7.00;;;8.10;99.90;;;;;;5113630;28;20509;-69
2021/04/01 02:40:18;;;;;;;9.67;6.47;;;8.00;99.90;;;;;;5113227;28;20472;-71
2021/04/01 02:42:45;;;;;;;11.40;6.77;;;8.00;99.90;;;;;;5113939;28;20533;-68
2021/04/01 02:45:12;;;;;;;10.23;7.03;;;8.00;99.90;;;;;;5113442;28;20499;-71
2021/04/01 02:47:39;;;;;;;10.90;7.87;;;8.00;99.90;;;;;;5113620;28;20860;-70
2021/04/01 02:50:08;;;;;;;9.43;7.17;;;7.90;99.90;;;;;;5113176;28;20465;-71
2021/04/01 02:52:35;;;;;;;10.10;8.27;;;7.90;99.90;;;;;;5113389;28;20527;-69
2021/04/01 02:55:02;;;;;;;11.93;8.10;;;7.90;99.90;;;;;;5113505;28;20472;-71
2021/04/01 02:57:28;;;;;;;9.70;8.43;;;7.90;99.90;;;;;;5113451;28;20511;-71
2021/04/01 02:59:55;;;;;;;10.63;8.80;;;7.90;99.90;;;;;;5113236;28;20465;-71
2021/04/01 03:02:24;;;;;;;11.10;7.90;;;7.90;99.90;;;;;;5113308;28;20441;-72
2021/04/01 03:04:51;;;;;;;10.50;8.60;;;7.90;99.90;;;;;;5113024;28;20918;-69
2021/04/01 03:07:18;;;;;;;12.67;9.03;;;7.90;99.90;;;;;;5113293;28;20536;-71
2021/04/01 03:09:44;;;;;;;13.67;9.90;;;7.90;99.90;;;;;;5113095;28;20449;-71
2021/04/01 03:12:11;;;;;;;11.03;9.30;;;7.90;99.90;;;;;;5113286;28;20473;-71
2021/04/01 03:14:38;;;;;;;10.20;8.80;;;7.90;99.90;;;;;;5115210;28;20458;-71
2021/04/01 03:17:05;;;;;;;12.80;9.23;;;7.90;99.90;;;;;;5113325;28;21032;-71
2021/04/01 03:19:31;;;;;;;10.60;9.07;;;7.80;99.90;;;;;;5113232;28;20532;-72
2021/04/01 03:21:58;;;;;;;13.50;9.63;;;7.80;99.90;;;;;;5113013;28;20532;-71
2021/04/01 03:24:25;;;;;;;10.13;8.57;;;7.80;99.90;;;;;;5112829;28;22908;-70
2021/04/01 03:26:51;;;;;;;9.97;8.93;;;7.80;99.90;;;;;;5113065;28;20997;-70
2021/04/01 03:29:18;;;;;;;9.27;8.37;;;7.80;99.90;;;;;;5112955;28;20469;-71
2021/04/01 03:31:44;;;;;;;13.67;8.83;;;7.80;99.90;;;;;;5112665;28;20520;-71
2021/04/01 03:34:11;;;;;;;11.30;7.27;;;7.90;99.90;;;;;;5112735;28;20466;-71
2021/04/01 03:36:38;;;;;;;11.90;7.60;;;7.80;99.90;;;;;;5113003;28;21089;-71
2021/04/01 03:39:04;;;;;;;8.60;7.40;;;7.80;99.90;;;;;;5113074;28;20441;-71
2021/04/01 03:41:32;;;;;;;11.30;7.97;;;7.90;99.90;;;;;;5111632;28;20994;-71
2021/04/01 03:43:58;;;;;;;10.53;9.07;;;8.00;99.90;;;;;;5112719;28;20496;-69
2021/04/01 03:46:24;;;;;;;10.30;7.40;;;8.00;99.90;;;;;;5112603;28;20481;-71
2021/04/01 03:48:51;;;;;;;16.13;8.20;;;7.90;99.90;;;;;;5112831;28;20468;-71
2021/04/01 03:51:17;;;;;;;11.67;7.57;;;7.80;99.90;;;;;;5112528;28;20574;-71
2021/04/01 03:53:43;;;;;;;10.90;7.60;;;7.90;99.90;;;;;;5112591;28;20548;-71
2021/04/01 03:56:10;;;;;;;11.77;7.30;;;7.90;99.90;;;;;;5112476;28;20506;-71
2021/04/01 04:04:10;;;;;;;9.10;7.47;;;7.90;99.90;;;;;;5102836;28;20522;-71
2021/04/01 04:09:35;;;;;;;8.83;7.27;;;7.80;99.90;;;;;;5088480;28;20837;-70
2021/04/01 04:12:09;;;;;;;10.33;6.87;;;7.90;99.90;;;;;;5146435;22;20491;-77
2021/04/01 04:14:39;;;;;;;9.40;6.33;;;7.90;99.90;;;;;;5054698;28;20815;-78
2021/04/01 04:17:06;;;;;;;8.90;6.27;;;7.80;99.90;;;;;;5053753;28;20452;-78
2021/04/01 04:19:32;;;;;;;10.67;7.10;;;7.70;99.90;;;;;;5053011;28;20531;-78
2021/04/01 04:21:59;;;;;;;10.40;6.50;;;7.60;99.90;;;;;;5053116;28;20483;-78
2021/04/01 04:24:25;;;;;;;8.10;6.77;;;7.50;99.90;;;;;;5052788;28;20476;-78
2021/04/01 04:26:51;;;;;;;9.93;7.40;;;7.50;99.90;;;;;;5052518;28;20455;-78
2021/04/01 04:29:18;;;;;;;10.10;7.70;;;7.50;99.90;;;;;;5053232;28;20447;-78
2021/04/01 04:31:46;;;;;;;11.80;6.93;;;7.50;99.90;;;;;;5053099;28;20539;-78
2021/04/01 04:34:12;;;;;;;11.47;7.10;;;7.50;99.90;;;;;;5053095;28;20539;-78
2021/04/01 04:36:38;;;;;;;9.63;6.83;;;7.40;99.90;;;;;;5053242;28;20548;-78
2021/04/01 04:39:05;;;;;;;12.93;6.33;;;7.40;99.90;;;;;;5057857;28;20994;-78
2021/04/01 04:41:32;;;;;;;8.40;6.37;;;7.40;99.90;;;;;;5052926;28;20993;-78
2021/04/01 04:43:58;;;;;;;9.97;6.63;;;7.30;99.90;;;;;;5052073;28;21016;-78
2021/04/01 04:46:24;;;;;;;11.87;6.87;;;7.40;99.90;;;;;;5051572;28;20492;-78
2021/04/01 04:48:52;;;;;;;9.40;7.10;;;7.40;99.90;;;;;;5051548;28;20555;-78
2021/04/01 04:51:18;;;;;;;9.00;6.03;;;7.40;99.90;;;;;;5051628;28;20527;-78
2021/04/01 04:53:44;;;;;;;9.50;6.70;;;7.40;99.90;;;;;;5051846;28;20439;-78
2021/04/01 04:56:13;;;;;;;14.47;7.40;;;7.40;99.90;;;;;;5051572;28;20526;-78
2021/04/01 04:58:43;;;;;;;7.70;6.23;;;7.40;99.90;;;;;;5051071;28;20464;-77
2021/04/01 05:01:13;;;;;;;9.30;6.90;;;7.30;99.90;;;;;;5050942;28;20459;-78
2021/04/01 05:06:48;;;;;;;9.23;6.90;;;7.30;99.90;;;;;;5050547;28;20455;-78
2021/04/01 05:09:15;;;;;;;8.77;5.93;;;7.30;99.90;;;;;;5050827;28;20486;-78
2021/04/01 05:11:41;;;;;;;12.83;7.00;;;7.30;99.90;;;;;;5050128;28;20487;-77
2021/04/01 05:14:07;;;;;;;9.77;7.03;;;7.30;99.90;;;;;;5049935;28;20471;-78
2021/04/01 05:16:34;;;;;;;9.13;6.40;;;7.30;99.90;;;;;;5050308;28;20521;-78
2021/04/01 05:19:02;;;;;;;17.63;7.57;;;7.40;99.90;;;;;;5050071;28;20500;-78
2021/04/01 05:21:33;;;;;;;10.20;7.20;;;7.40;99.90;;;;;;5050049;28;20483;-78
2021/04/01 05:24:04;;;;;;;8.60;6.90;;;7.40;99.90;;;;;;5050329;28;20942;-78
2021/04/01 05:29:13;;;;;;;9.87;7.60;;;7.40;99.90;;;;;;5050754;28;20411;-78
2021/04/01 05:31:41;;;;;;;9.97;7.83;;;7.40;99.90;;;;;;5054990;28;20448;-79
2021/04/01 05:34:07;;;;;;;9.03;6.17;;;7.50;99.90;;;;;;5051259;28;20850;-77
2021/04/01 05:36:36;;;;;;;10.90;8.03;;;7.60;99.90;;;;;;5049596;28;20443;-77
2021/04/01 05:39:03;;;;;;;7.83;6.23;;;7.70;99.90;;;;;;5049789;28;20842;-77
2021/04/01 05:41:30;;;;;;;9.50;6.87;;;7.90;99.90;;;;;;5049505;28;20448;-77
2021/04/01 05:44:04;;;;;;;11.30;7.47;;;7.90;99.90;;;;;;5049651;28;20500;-77
2021/04/01 05:46:33;;;;;;;8.90;6.63;;;8.10;99.90;;;;;;5049759;28;20468;-77
2021/04/01 05:49:11;;;;;;;12.53;7.40;;;8.20;99.90;;;;;;5049402;28;20979;-78
2021/04/01 05:57:35;;;;;;;10.17;7.37;;;8.80;99.90;;;;;;4992410;28;20550;-77
2021/04/01 06:03:19;;;;;;;12.47;8.37;;;9.10;99.90;;;;;;5048167;28;20436;-77
2021/04/01 06:05:47;;;;;;;8.80;7.03;;;9.30;99.90;;;;;;5051932;28;20487;-78
2021/04/01 06:08:17;;;;;;;11.03;8.10;;;9.40;99.90;;;;;;5054081;28;20470;-77
2021/04/01 06:10:44;;;;;;;10.60;7.83;;;9.50;99.90;;;;;;5053065;28;20475;-77
2021/04/01 06:13:12;;;;;;;14.20;9.60;;;9.60;99.90;;;;;;5052810;28;20974;-78
2021/04/01 06:15:39;;;;;;;12.67;7.97;;;9.70;99.90;;;;;;5053227;28;20505;-76
2021/04/01 06:18:11;;;;;;;9.43;8.20;;;9.80;99.90;;;;;;5052893;28;20572;-76
2021/04/01 06:20:40;;;;;;;12.83;8.07;;;10.00;99.90;;;;;;5052750;28;20447;-74
2021/04/01 06:23:07;;;;;;;11.07;8.50;;;10.10;99.90;;;;;;5053033;28;20527;-73
2021/04/01 06:25:37;;;;;;;13.87;8.10;;;10.30;99.90;;;;;;5052694;28;20571;-76
2021/04/01 06:28:08;;;;;;;14.23;9.47;;;10.50;99.90;;;;;;5052851;28;20567;-73
2021/04/01 06:30:50;;;;;;;13.20;8.90;;;10.70;99.90;;;;;;5052541;28;20452;-73
2021/04/01 06:33:21;;;;;;;14.10;9.43;;;10.80;99.90;;;;;;5052575;28;20454;-74
2021/04/01 06:35:50;;;;;;;11.30;8.80;;;11.00;99.90;;;;;;5052721;28;20586;-76
2021/04/01 06:38:24;;;;;;;12.63;8.70;;;11.20;99.90;;;;;;5052406;28;20467;-73
2021/04/01 06:40:55;;;;;;;14.03;8.77;;;11.50;99.90;;;;;;5052202;28;20489;-74
2021/04/01 06:43:34;;;;;;;13.20;9.60;;;11.70;99.90;;;;;;5048884;28;20881;-71
2021/04/01 06:46:06;;;;;;;13.40;9.43;;;11.80;99.90;;;;;;5054745;28;20487;-74
2021/04/01 06:51:49;;;;;;;14.60;8.43;;;11.70;99.90;;;;;;4989789;28;20506;-74
2021/04/01 06:54:24;;;;;;;12.33;8.83;;;11.60;99.90;;;;;;4987037;28;20504;-74
2021/04/01 06:57:00;;;;;;;14.03;9.23;;;11.50;99.90;;;;;;5035798;28;20813;-74
2021/04/01 06:59:40;;;;;;;14.77;10.50;;;11.50;99.90;;;;;;5070161;28;20504;-74
2021/04/01 07:02:16;;;;;;;14.80;8.87;;;11.40;99.90;;;;;;5071514;28;20439;-74
2021/04/01 07:04:45;;;;;;;14.03;8.77;;;11.40;99.90;;;;;;5045151;28;20497;-75
2021/04/01 07:07:14;;;;;;;13.57;9.70;;;11.50;99.90;;;;;;5052013;28;20521;-74
2021/04/01 07:09:53;;;;;;;14.90;9.70;;;11.70;99.90;;;;;;5051612;28;20535;-75
2021/04/01 07:12:29;;;;;;;14.90;8.97;;;11.90;99.90;;;;;;5051636;28;21123;-75
2021/04/01 07:15:01;;;;;;;12.20;8.73;;;12.10;99.90;;;;;;5051858;28;20443;-75
2021/04/01 07:17:32;;;;;;;16.17;9.30;;;12.30;99.90;;;;;;5058511;28;20987;-75
2021/04/01 07:20:26;;;;;;;12.10;8.53;;;12.40;99.90;;;;;;5051562;28;20939;-75
2021/04/01 07:23:21;;;;;;;14.00;9.23;;;12.60;99.90;;;;;;5051951;28;20479;-74
2021/04/01 07:32:07;;;;;;;8.63;7.83;;;13.00;99.90;;;;;;5029660;28;20439;-74
2021/04/01 07:34:53;;;;;;;9.90;8.03;;;13.20;99.90;;;;;;5033054;28;20445;-75
2021/04/01 07:48:36;;;;;;;12.00;8.70;;;14.80;99.90;;;;;;5058937;28;20451;-77
2021/04/01 07:51:03;;;;;;;16.03;8.73;;;15.00;99.90;;;;;;5054231;28;20471;-76
2021/04/01 07:53:29;;;;;;;10.57;8.13;;;15.10;99.90;;;;;;5072243;28;20503;-74
2021/04/01 07:56:14;;;;;;;12.47;9.57;;;15.30;99.90;;;;;;5071632;28;20496;-78
2021/04/01 07:58:57;;;;;;;12.70;8.10;;;15.50;99.90;;;;;;5073125;28;20501;-75
2021/04/01 08:01:39;;;;;;;10.47;7.90;;;15.80;99.90;;;;;;5068570;28;20447;-75
2021/04/01 08:04:09;;;;;;;13.20;8.17;;;16.10;99.90;;;;;;5050983;28;20443;-73
2021/04/01 08:06:37;;;;;;;9.03;7.40;;;16.40;98.20;;;;;;5051991;28;20533;-74
2021/04/01 08:09:07;;;;;;;14.27;8.20;;;16.50;97.90;;;;;;5052688;28;20468;-78
2021/04/01 08:11:37;;;;;;;11.57;7.77;;;16.50;98.00;;;;;;5051208;28;20439;-78
2021/04/01 08:14:09;;;;;;;11.63;7.80;;;16.40;97.70;;;;;;5050856;28;20549;-72
2021/04/01 08:16:44;;;;;;;12.70;7.37;;;16.30;96.70;;;;;;5050651;28;20508;-73
2021/04/01 08:19:14;;;;;;;12.20;7.50;;;16.20;97.30;;;;;;5050548;28;20443;-72
2021/04/01 08:21:43;;;;;;;9.57;7.37;;;16.30;97.60;;;;;;5050500;28;20448;-75
2021/04/01 08:24:16;;;;;;;10.63;7.47;;;16.50;97.50;;;;;;5050465;28;20466;-74
2021/04/01 08:27:00;;;;;;;12.40;8.10;;;16.70;96.60;;;;;;5056423;28;20475;-71
2021/04/01 08:32:34;;;;;;;13.40;7.77;;;17.00;96.40;;;;;;5052906;28;20439;-74
2021/04/01 08:35:01;;;;;;;10.47;7.40;;;17.40;97.10;;;;;;5051406;28;20452;-72
2021/04/01 08:37:32;;;;;;;10.97;8.03;;;17.80;94.80;;;;;;5051827;28;20494;-71
2021/04/01 08:40:00;;;;;;;12.87;7.90;;;18.20;94.70;;;;;;5049970;28;20543;-73
2021/04/01 08:42:59;;;;;;;9.30;7.90;;;18.50;93.60;;;;;;5050484;28;20486;-72
2021/04/01 08:45:36;;;;;;;9.97;6.90;;;18.60;94.10;;;;;;4995786;28;20569;-73
2021/04/01 08:48:17;;;;;;;13.80;7.17;;;18.90;93.80;;;;;;5050091;28;20475;-74
2021/04/01 08:50:52;;;;;;;13.10;7.90;;;19.10;93.10;;;;;;5049700;28;20451;-73
2021/04/01 08:53:43;;;;;;;12.90;8.13;;;19.40;92.90;;;;;;5050081;28;20538;-73
2021/04/01 08:56:18;;;;;;;11.63;7.10;;;19.60;92.50;;;;;;5050149;28;20475;-73
2021/04/01 08:58:54;;;;;;;15.43;8.33;;;19.90;91.90;;;;;;5049869;28;20605;-73
2021/04/01 09:01:27;;;;;;;7.67;6.70;;;20.20;91.50;;;;;;5049591;28;20479;-75
2021/04/01 09:03:57;;;;;;;13.57;7.57;;;20.40;90.60;;;;;;5050049;28;20482;-74
2021/04/01 09:06:26;;;;;;;12.00;7.10;;;20.60;90.20;;;;;;5049808;28;20519;-75
2021/04/01 09:09:04;;;;;;;8.60;7.60;;;20.60;86.30;;;;;;5049837;28;20495;-73
2021/04/01 09:11:36;;;;;;;10.80;7.40;;;20.80;85.80;;;;;;5049378;28;20455;-73
2021/04/01 09:14:14;;;;;;;13.30;7.47;;;20.70;84.60;;;;;;5049896;28;20459;-74
2021/04/01 09:16:47;;;;;;;10.50;7.57;;;20.50;84.30;;;;;;5049893;28;20854;-73
2021/04/01 09:19:25;;;;;;;12.37;7.77;;;20.50;86.80;;;;;;5049935;28;20448;-73
2021/04/01 09:21:52;;;;;;;8.97;6.83;;;20.50;85.50;;;;;;5049537;28;20479;-71
2021/04/01 09:24:21;;;;;;;11.03;8.27;;;20.60;84.50;;;;;;5049734;28;20555;-73
2021/04/01 09:26:48;;;;;;;9.27;7.77;;;20.60;83.70;;;;;;5049788;28;20479;-73
2021/04/01 09:29:16;;;;;;;9.50;7.03;;;20.40;83.60;;;;;;5049676;28;20890;-71
2021/04/01 09:31:47;;;;;;;11.97;7.87;;;20.40;83.90;;;;;;5049235;28;20535;-71
2021/04/01 09:34:17;;;;;;;9.83;7.60;;;20.60;83.40;;;;;;5049508;28;20444;-72
2021/04/01 09:36:45;;;;;;;12.10;8.50;;;20.90;84.10;;;;;;5049549;28;20479;-71
2021/04/01 09:39:25;;;;;;;10.17;8.13;;;21.20;82.70;;;;;;5050541;28;20820;-71
2021/04/01 09:41:57;;;;;;;13.97;9.53;;;21.40;82.30;;;;;;5052903;28;20819;-70
2021/04/01 09:44:25;;;;;;;13.83;8.67;;;21.50;82.40;;;;;;5052203;28;20510;-70
2021/04/01 09:46:58;;;;;;;8.47;6.00;;;21.60;82.50;;;;;;5053914;28;20572;-70
2021/04/01 09:49:31;;;;;;;9.97;4.93;;;21.80;79.20;;;;;;5055953;28;20543;-70
2021/04/01 09:52:01;;;;;;;6.87;5.80;;;21.80;77.60;;;;;;5055422;28;20436;-73
2021/04/01 09:54:31;;;;;;;7.40;5.30;;;21.70;75.60;;;;;;5054887;28;20443;-73
2021/04/01 09:57:00;;;;;;;10.27;5.63;;;21.50;75.60;;;;;;5053273;28;20444;-71
2021/04/01 09:59:42;;;;;;;7.90;6.07;;;21.30;76.70;;;;;;5053507;28;20436;-72
2021/04/01 10:02:20;;;;;;;9.57;6.00;;;21.50;75.50;;;;;;5050796;28;21126;-71
2021/04/01 10:04:51;;;;;;;8.10;5.23;;;21.70;74.80;;;;;;5057781;28;20496;-70
2021/04/01 10:07:20;;;;;;;7.77;5.00;;;22.00;73.40;;;;;;5051715;28;21076;-71
2021/04/01 10:09:50;;;;;;;8.43;4.60;;;22.20;73.00;;;;;;5051635;28;20542;-72
2021/04/01 10:12:19;;;;;;;10.90;4.43;;;22.30;72.00;;;;;;5051679;28;20466;-73
2021/04/01 10:14:50;;;;;;;7.57;4.53;;;22.50;73.00;;;;;;5051863;28;20451;-72
2021/04/01 10:17:19;;;;;;;5.57;4.60;;;22.70;74.00;;;;;;5051720;28;20491;-70
2021/04/01 10:19:51;;;;;;;6.13;5.10;;;22.90;71.90;;;;;;5051591;28;20482;-70
2021/04/01 10:22:22;;;;;;;10.33;5.00;;;23.00;71.30;;;;;;5051657;28;20440;-70
2021/04/01 10:25:03;;;;;;;9.10;4.90;;;23.00;72.30;;;;;;5051446;28;20448;-71
2021/04/01 10:27:37;;;;;;;10.27;5.30;;;23.10;70.30;;;;;;5051580;28;20464;-71
2021/04/01 10:30:08;;;;;;;11.67;4.83;;;23.30;72.10;;;;;;5050711;28;20443;-69
2021/04/01 10:32:39;;;;;;;6.87;4.70;;;23.60;70.90;;;;;;5053298;28;20497;-71
2021/04/01 10:35:09;;;;;;;9.80;4.53;;;23.90;68.00;;;;;;5059235;28;20892;-73
2021/04/01 10:37:36;;;;;;;5.60;3.60;;;24.10;69.30;;;;;;5049551;28;20546;-72
2021/04/01 10:40:07;;;;;;;9.27;4.60;;;24.20;68.20;;;;;;5061972;28;20443;-72
2021/04/01 10:42:34;;;;;;;8.60;3.53;;;24.40;66.30;;;;;;5050580;28;20578;-72
2021/04/01 10:45:04;;;;;;;4.80;3.83;;;24.30;64.70;;;;;;5056171;28;20440;-73
2021/04/01 10:47:53;;;;;;;5.83;4.00;;;24.40;67.50;;;;;;5048365;28;20555;-73
2021/04/01 10:50:22;;;;;;;5.13;3.73;;;24.40;66.70;;;;;;5056571;28;21110;-75
2021/04/01 10:52:49;;;;;;;8.23;4.13;;;24.20;65.60;;;;;;5068818;28;20435;-70
2021/04/01 10:55:15;;;;;;;8.47;4.30;;;24.10;66.50;;;;;;5068565;28;20520;-70
2021/04/01 10:57:42;;;;;;;6.10;3.60;;;24.30;66.30;;;;;;5070171;28;20494;-70
2021/04/01 11:00:12;;;;;;;7.00;4.17;;;24.00;64.80;;;;;;5069679;28;20530;-73
2021/04/01 11:02:41;;;;;;;6.73;4.07;;;24.10;65.70;;;;;;5071040;28;20447;-71
2021/04/01 11:05:12;;;;;;;4.63;4.07;;;24.40;64.30;;;;;;5071363;28;20937;-74
2021/04/01 11:07:46;;;;;;;6.47;4.30;;;24.50;64.10;;;;;;5070862;28;20455;-71
2021/04/01 11:10:22;;;;;;;4.60;3.23;;;24.70;63.80;;;;;;5067199;28;20454;-71
2021/04/01 11:12:56;;;;;;;10.30;3.93;;;24.90;62.60;;;;;;5053797;28;20448;-70
2021/04/01 11:15:24;;;;;;;6.83;3.63;;;25.20;64.10;;;;;;5056634;28;20455;-72
2021/04/01 11:17:54;;;;;;;9.60;3.63;;;24.80;61.30;;;;;;5057078;28;20556;-71
2021/04/01 11:20:24;;;;;;;7.27;3.00;;;24.90;61.40;;;;;;5055901;28;20452;-73
2021/04/01 11:23:06;;;;;;;6.03;3.67;;;25.00;61.80;;;;;;5057035;28;20436;-72
2021/04/01 11:25:32;;;;;;;4.90;3.50;;;25.30;61.20;;;;;;5054497;28;20558;-72
2021/04/01 11:27:59;;;;;;;6.00;3.77;;;25.60;60.10;;;;;;5051460;28;20496;-73
2021/04/01 11:30:42;;;;;;;7.07;3.90;;;25.60;60.10;;;;;;5051257;28;20534;-72
2021/04/01 11:33:09;;;;;;;6.30;3.53;;;25.40;59.00;;;;;;5051393;28;20475;-73
2021/04/01 11:35:39;;;;;;;5.27;3.80;;;25.50;59.20;;;;;;5051592;28;20935;-72
2021/04/01 11:38:09;;;;;;;7.50;3.20;;;25.80;59.80;;;;;;5051089;28;20502;-72
2021/04/01 11:40:38;;;;;;;5.80;3.63;;;26.40;58.20;;;;;;5051041;28;20935;-73
2021/04/01 11:43:04;;;;;;;7.60;3.70;;;26.80;56.80;;;;;;5051074;28;20444;-72
2021/04/01 11:45:34;;;;;;;5.40;3.33;;;27.00;57.50;;;;;;5056044;28;20990;-74
2021/04/01 11:48:01;;;;;;;7.00;3.23;;;27.20;55.90;;;;;;5046708;28;20471;-72
2021/04/01 11:50:29;;;;;;;4.93;3.50;;;27.00;55.90;;;;;;5052393;28;20455;-73
2021/04/01 11:52:57;;;;;;;6.97;3.70;;;26.90;56.20;;;;;;5056035;28;20573;-73
2021/04/01 11:55:25;;;;;;;5.67;3.20;;;26.90;55.50;;;;;;5054747;28;20444;-72
2021/04/01 11:57:52;;;;;;;6.53;3.47;;;27.80;55.40;;;;;;5053228;28;20452;-73
2021/04/01 12:00:22;;;;;;;6.60;3.40;;;28.40;54.00;;;;;;5047097;28;20464;-71
2021/04/01 12:02:54;;;;;;;5.83;3.07;;;28.00;53.20;;;;;;5053320;28;20440;-73
2021/04/01 12:05:22;;;;;;;5.60;3.50;;;28.20;54.10;;;;;;5063650;28;20479;-71
2021/04/01 12:07:48;;;;;;;6.97;3.40;;;28.00;53.10;;;;;;5049243;28;20464;-71
2021/04/01 12:10:16;;;;;;;3.93;3.10;;;27.70;53.70;;;;;;5048843;28;20472;-71
2021/04/01 12:12:43;;;;;;;5.20;3.70;;;27.80;53.40;;;;;;5049692;28;20981;-71
2021/04/01 12:15:11;;;;;;;8.13;3.43;;;28.10;53.30;;;;;;5055929;28;20548;-73
2021/04/01 12:17:39;;;;;;;6.60;3.47;;;28.50;52.50;;;;;;5052043;28;21033;-73
2021/04/01 12:20:11;;;;;;;4.23;2.90;;;28.80;51.20;;;;;;5054727;28;20444;-73
2021/04/01 12:22:39;;;;;;;7.37;3.80;;;29.00;50.50;;;;;;5065155;28;20440;-74
2021/04/01 12:25:10;;;;;;;6.20;4.30;;;28.80;49.80;;;;;;5059277;28;20464;-74
2021/04/01 12:27:37;;;;;;;10.30;4.40;;;28.20;50.40;;;;;;5052587;28;20460;-74
2021/04/01 12:30:09;;;;;;;5.07;3.83;;;28.20;51.90;;;;;;5055713;28;20486;-74
2021/04/01 12:32:36;;;;;;;4.83;3.10;;;28.30;51.60;;;;;;5052043;28;20450;-75
2021/04/01 12:35:20;;;;;;;4.73;3.50;;;28.30;51.40;;;;;;5056086;28;20962;-71
2021/04/01 12:38:00;;;;;;;4.50;3.20;;;28.50;50.00;;;;;;5056760;28;20456;-72
2021/04/01 12:40:27;;;;;;;5.70;3.33;;;29.20;49.60;;;;;;5054767;28;20435;-72
2021/04/01 12:43:02;;;;;;;5.37;3.10;;;29.60;48.50;;;;;;5050207;28;20489;-72
2021/04/01 12:45:30;;;;;;;5.87;3.60;;;29.60;47.90;;;;;;5050132;28;20476;-72
2021/04/01 12:48:08;;;;;;;5.50;3.23;;;29.60;47.90;;;;;;5049920;28;20847;-72
2021/04/01 12:50:36;;;;;;;6.10;4.10;;;29.20;48.60;;;;;;5049760;28;20965;-71
2021/04/01 13:10:00;;;;;;;7.93;4.00;;;26.00;54.10;;;;;;5041003;28;20411;-73
2021/04/01 13:12:26;;;;;;;8.40;3.83;;;25.50;55.40;;;;;;5066463;28;20823;-73
2021/04/01 13:14:53;;;;;;;6.10;3.87;;;25.60;53.40;;;;;;5068591;28;20445;-73
2021/04/01 13:17:19;;;;;;;6.60;3.67;;;25.70;53.60;;;;;;5067710;28;20845;-71
2021/04/01 13:19:46;;;;;;;5.83;3.70;;;26.10;53.20;;;;;;5069664;28;20474;-73
2021/04/01 13:22:15;;;;;;;6.40;4.30;;;27.00;50.70;;;;;;5069913;28;21180;-78
2021/04/01 13:25:04;;;;;;;8.33;4.50;;;27.50;50.80;;;;;;5069792;28;20447;-71
2021/04/01 13:27:34;;;;;;;10.07;4.00;;;27.40;50.90;;;;;;5069652;28;20466;-72
2021/04/01 13:30:06;;;;;;;7.23;4.47;;;26.90;52.30;;;;;;5069290;28;20474;-72
2021/04/01 13:32:41;;;;;;;11.43;5.10;;;25.80;53.90;;;;;;5069796;28;20431;-71
2021/04/01 13:35:10;;;;;;;4.83;4.33;;;25.30;55.00;;;;;;5065792;28;20438;-71
2021/04/01 13:37:40;;;;;;;7.87;4.63;;;25.20;55.60;;;;;;5053524;28;20464;-70
2021/04/01 13:40:10;;;;;;;8.13;4.33;;;25.00;54.50;;;;;;5058466;28;20501;-70
2021/04/01 13:42:39;;;;;;;6.50;3.53;;;25.00;54.00;;;;;;5055249;28;20509;-70
2021/04/01 13:45:09;;;;;;;9.80;4.87;;;24.80;54.60;;;;;;5050601;28;20482;-69
2021/04/01 13:47:40;;;;;;;10.73;4.50;;;24.70;55.70;;;;;;5048975;28;20579;-69
2021/04/01 13:50:07;;;;;;;7.83;4.70;;;24.60;55.80;;;;;;5047708;28;20448;-70
2021/04/01 13:52:36;;;;;;;8.07;5.30;;;24.60;56.10;;;;;;5048541;28;20828;-70
2021/04/01 13:55:12;;;;;;;15.50;6.20;;;24.70;55.60;;;;;;5050942;28;20478;-70
2021/04/01 13:57:54;;;;;;;7.93;4.80;;;24.50;54.60;;;;;;5041860;28;20551;-70
2021/04/01 14:00:42;;;;;;;11.80;5.30;;;24.40;54.00;;;;;;5037601;28;20888;-70
2021/04/01 14:09:04;;;;;;;8.40;4.57;;;24.10;55.50;;;;;;5039538;28;20618;-71